sensor_id;sensor_type;location;lat;lon;timestamp;P1;durP1;ratioP1;P2;durP2;ratioP2
11646;SDS011;5880;52.342;9.662;2023-03-02T00:00:39;6.00;;;4.20;;
11646;SDS011;5880;52.342;9.662;2023-03-02T00:03:07;6.17;;;4.50;;
11646;SDS011;5880;52.342;9.662;2023-03-02T00:05:34;6.40;;;4.07;;
11646;SDS011;5880;52.342;9.662;2023-03-02T00:08:02;7.07;;;3.93;;
11646;SDS011;5880;52.342;9.662;2023-03-02T00:10:29;5.60;;;4.10;;
11646;SDS011;5880;52.342;9.662;2023-03-02T00:12:56;7.20;;;4.37;;
11646;SDS011;5880;52.342;9.662;2023-03-02T00:15:23;6.80;;;4.20;;
11646;SDS011;5880;52.342;9.662;2023-03-02T00:17:48;5.43;;;4.10;;
11646;SDS011;5880;52.342;9.662;2023-03-02T00:20:14;5.27;;;4.17;;
11646;SDS011;5880;52.342;9.662;2023-03-02T00:22:41;5.80;;;4.20;;
11646;SDS011;5880;52.342;9.662;2023-03-02T00:25:09;5.30;;;3.93;;
11646;SDS011;5880;52.342;9.662;2023-03-02T00:27:37;5.73;;;4.17;;
11646;SDS011;5880;52.342;9.662;2023-03-02T00:30:03;6.57;;;4.17;;
11646;SDS011;5880;52.342;9.662;2023-03-02T00:32:30;6.50;;;3.93;;
11646;SDS011;5880;52.342;9.662;2023-03-02T00:34:56;7.07;;;4.30;;
11646;SDS011;5880;52.342;9.662;2023-03-02T00:37:22;6.73;;;4.33;;
11646;SDS011;5880;52.342;9.662;2023-03-02T00:39:50;4.97;;;4.20;;
11646;SDS011;5880;52.342;9.662;2023-03-02T00:42:16;7.73;;;4.50;;
11646;SDS011;5880;52.342;9.662;2023-03-02T00:44:42;7.07;;;4.33;;
11646;SDS011;5880;52.342;9.662;2023-03-02T00:47:08;6.40;;;4.37;;
11646;SDS011;5880;52.342;9.662;2023-03-02T00:49:33;6.80;;;4.23;;
11646;SDS011;5880;52.342;9.662;2023-03-02T00:52:00;5.57;;;4.10;;
11646;SDS011;5880;52.342;9.662;2023-03-02T00:54:27;5.20;;;4.17;;
11646;SDS011;5880;52.342;9.662;2023-03-02T00:56:53;6.40;;;4.27;;
11646;SDS011;5880;52.342;9.662;2023-03-02T00:59:19;6.30;;;4.30;;
11646;SDS011;5880;52.342;9.662;2023-03-02T01:01:51;6.27;;;4.27;;
11646;SDS011;5880;52.342;9.662;2023-03-02T01:04:40;6.50;;;4.27;;
11646;SDS011;5880;52.342;9.662;2023-03-02T01:07:08;6.63;;;3.97;;
11646;SDS011;5880;52.342;9.662;2023-03-02T01:09:38;6.50;;;4.43;;
11646;SDS011;5880;52.342;9.662;2023-03-02T01:12:05;5.83;;;4.13;;
11646;SDS011;5880;52.342;9.662;2023-03-02T01:14:33;5.70;;;3.97;;
11646;SDS011;5880;52.342;9.662;2023-03-02T01:17:00;6.33;;;4.30;;
11646;SDS011;5880;52.342;9.662;2023-03-02T01:19:29;5.53;;;4.13;;
11646;SDS011;5880;52.342;9.662;2023-03-02T01:21:55;5.73;;;4.17;;
11646;SDS011;5880;52.342;9.662;2023-03-02T01:24:20;6.10;;;4.63;;
11646;SDS011;5880;52.342;9.662;2023-03-02T01:26:46;6.03;;;4.20;;
11646;SDS011;5880;52.342;9.662;2023-03-02T01:29:12;7.03;;;4.67;;
11646;SDS011;5880;52.342;9.662;2023-03-02T01:31:37;6.43;;;4.30;;
11646;SDS011;5880;52.342;9.662;2023-03-02T01:34:03;6.30;;;4.10;;
11646;SDS011;5880;52.342;9.662;2023-03-02T01:36:29;6.40;;;4.17;;
11646;SDS011;5880;52.342;9.662;2023-03-02T01:38:54;6.90;;;4.47;;
11646;SDS011;5880;52.342;9.662;2023-03-02T01:41:20;6.63;;;4.03;;
11646;SDS011;5880;52.342;9.662;2023-03-02T01:43:46;5.23;;;3.77;;
11646;SDS011;5880;52.342;9.662;2023-03-02T01:46:13;6.63;;;4.57;;
11646;SDS011;5880;52.342;9.662;2023-03-02T01:51:23;6.90;;;3.97;;
11646;SDS011;5880;52.342;9.662;2023-03-02T01:53:53;6.97;;;4.13;;
11646;SDS011;5880;52.342;9.662;2023-03-02T01:56:28;6.00;;;4.27;;
11646;SDS011;5880;52.342;9.662;2023-03-02T01:58:59;6.07;;;4.30;;
11646;SDS011;5880;52.342;9.662;2023-03-02T02:01:32;6.10;;;4.50;;
11646;SDS011;5880;52.342;9.662;2023-03-02T02:04:01;5.93;;;4.00;;
11646;SDS011;5880;52.342;9.662;2023-03-02T02:06:36;7.40;;;4.80;;
11646;SDS011;5880;52.342;9.662;2023-03-02T02:09:07;5.83;;;4.40;;
11646;SDS011;5880;52.342;9.662;2023-03-02T02:11:38;6.10;;;4.17;;
11646;SDS011;5880;52.342;9.662;2023-03-02T02:14:04;4.87;;;3.97;;
11646;SDS011;5880;52.342;9.662;2023-03-02T02:16:31;5.20;;;4.07;;
11646;SDS011;5880;52.342;9.662;2023-03-02T02:18:59;5.77;;;4.00;;
11646;SDS011;5880;52.342;9.662;2023-03-02T02:21:28;5.77;;;3.77;;
11646;SDS011;5880;52.342;9.662;2023-03-02T02:26:49;5.97;;;3.80;;
11646;SDS011;5880;52.342;9.662;2023-03-02T02:29:20;5.40;;;3.90;;
11646;SDS011;5880;52.342;9.662;2023-03-02T02:31:52;5.87;;;3.77;;
11646;SDS011;5880;52.342;9.662;2023-03-02T02:34:29;5.63;;;4.13;;
11646;SDS011;5880;52.342;9.662;2023-03-02T02:39:51;5.20;;;3.80;;
11646;SDS011;5880;52.342;9.662;2023-03-02T02:42:19;7.00;;;4.13;;
11646;SDS011;5880;52.342;9.662;2023-03-02T02:44:58;5.57;;;4.17;;
11646;SDS011;5880;52.342;9.662;2023-03-02T02:47:28;7.93;;;4.90;;
11646;SDS011;5880;52.342;9.662;2023-03-02T02:49:54;8.00;;;4.63;;
11646;SDS011;5880;52.342;9.662;2023-03-02T02:52:23;5.67;;;4.27;;
11646;SDS011;5880;52.342;9.662;2023-03-02T02:54:52;8.63;;;5.13;;
11646;SDS011;5880;52.342;9.662;2023-03-02T02:57:22;6.97;;;4.53;;
11646;SDS011;5880;52.342;9.662;2023-03-02T02:59:59;6.87;;;4.57;;
11646;SDS011;5880;52.342;9.662;2023-03-02T03:02:27;6.03;;;4.30;;
11646;SDS011;5880;52.342;9.662;2023-03-02T03:04:56;6.37;;;4.53;;
11646;SDS011;5880;52.342;9.662;2023-03-02T03:07:29;8.10;;;4.90;;
11646;SDS011;5880;52.342;9.662;2023-03-02T03:09:59;8.67;;;5.23;;
11646;SDS011;5880;52.342;9.662;2023-03-02T03:12:34;8.10;;;4.53;;
11646;SDS011;5880;52.342;9.662;2023-03-02T03:15:02;7.13;;;4.83;;
11646;SDS011;5880;52.342;9.662;2023-03-02T03:17:30;6.60;;;4.90;;
11646;SDS011;5880;52.342;9.662;2023-03-02T03:19:55;8.07;;;5.40;;
11646;SDS011;5880;52.342;9.662;2023-03-02T03:22:30;8.73;;;5.37;;
11646;SDS011;5880;52.342;9.662;2023-03-02T03:24:59;7.17;;;5.30;;
11646;SDS011;5880;52.342;9.662;2023-03-02T03:27:25;7.27;;;5.27;;
11646;SDS011;5880;52.342;9.662;2023-03-02T03:29:51;8.93;;;5.70;;
11646;SDS011;5880;52.342;9.662;2023-03-02T03:32:17;7.77;;;5.50;;
11646;SDS011;5880;52.342;9.662;2023-03-02T03:34:44;9.53;;;6.77;;
11646;SDS011;5880;52.342;9.662;2023-03-02T03:37:11;12.63;;;8.20;;
11646;SDS011;5880;52.342;9.662;2023-03-02T03:39:43;12.27;;;8.17;;
11646;SDS011;5880;52.342;9.662;2023-03-02T03:42:10;13.73;;;8.03;;
11646;SDS011;5880;52.342;9.662;2023-03-02T03:44:36;16.23;;;9.73;;
11646;SDS011;5880;52.342;9.662;2023-03-02T03:47:01;14.03;;;8.80;;
11646;SDS011;5880;52.342;9.662;2023-03-02T03:49:27;13.73;;;8.50;;
11646;SDS011;5880;52.342;9.662;2023-03-02T03:51:53;14.20;;;8.27;;
11646;SDS011;5880;52.342;9.662;2023-03-02T03:54:19;13.37;;;8.83;;
11646;SDS011;5880;52.342;9.662;2023-03-02T03:56:46;13.33;;;8.23;;
11646;SDS011;5880;52.342;9.662;2023-03-02T03:59:15;14.57;;;8.90;;
11646;SDS011;5880;52.342;9.662;2023-03-02T04:01:48;12.37;;;8.53;;
11646;SDS011;5880;52.342;9.662;2023-03-02T04:04:24;15.47;;;8.67;;
11646;SDS011;5880;52.342;9.662;2023-03-02T04:06:57;13.07;;;8.77;;
11646;SDS011;5880;52.342;9.662;2023-03-02T04:09:23;19.83;;;12.73;;
11646;SDS011;5880;52.342;9.662;2023-03-02T04:11:50;20.27;;;11.83;;
11646;SDS011;5880;52.342;9.662;2023-03-02T04:14:18;19.90;;;10.77;;
11646;SDS011;5880;52.342;9.662;2023-03-02T04:16:46;20.27;;;11.33;;
11646;SDS011;5880;52.342;9.662;2023-03-02T04:19:13;20.20;;;11.00;;
11646;SDS011;5880;52.342;9.662;2023-03-02T04:21:42;20.20;;;11.00;;
11646;SDS011;5880;52.342;9.662;2023-03-02T04:24:12;18.53;;;10.97;;
11646;SDS011;5880;52.342;9.662;2023-03-02T04:26:39;18.37;;;10.93;;
11646;SDS011;5880;52.342;9.662;2023-03-02T04:29:06;25.87;;;13.47;;
11646;SDS011;5880;52.342;9.662;2023-03-02T04:31:35;21.43;;;11.43;;
11646;SDS011;5880;52.342;9.662;2023-03-02T04:34:02;18.93;;;11.33;;
11646;SDS011;5880;52.342;9.662;2023-03-02T04:36:29;18.07;;;10.67;;
11646;SDS011;5880;52.342;9.662;2023-03-02T04:38:56;19.70;;;11.70;;
11646;SDS011;5880;52.342;9.662;2023-03-02T04:41:22;20.17;;;10.87;;
11646;SDS011;5880;52.342;9.662;2023-03-02T04:43:48;22.37;;;11.70;;
11646;SDS011;5880;52.342;9.662;2023-03-02T04:46:14;16.57;;;9.90;;
11646;SDS011;5880;52.342;9.662;2023-03-02T04:48:48;21.20;;;12.80;;
11646;SDS011;5880;52.342;9.662;2023-03-02T04:51:18;21.23;;;11.27;;
11646;SDS011;5880;52.342;9.662;2023-03-02T04:53:52;17.53;;;10.77;;
11646;SDS011;5880;52.342;9.662;2023-03-02T04:56:22;19.13;;;10.03;;
11646;SDS011;5880;52.342;9.662;2023-03-02T04:58:48;21.57;;;11.47;;
11646;SDS011;5880;52.342;9.662;2023-03-02T05:01:14;25.00;;;12.60;;
11646;SDS011;5880;52.342;9.662;2023-03-02T05:03:41;18.37;;;10.87;;
11646;SDS011;5880;52.342;9.662;2023-03-02T05:06:07;15.47;;;10.63;;
11646;SDS011;5880;52.342;9.662;2023-03-02T05:08:34;17.63;;;10.07;;
11646;SDS011;5880;52.342;9.662;2023-03-02T05:11:00;17.43;;;10.90;;
11646;SDS011;5880;52.342;9.662;2023-03-02T05:13:26;20.77;;;10.83;;
11646;SDS011;5880;52.342;9.662;2023-03-02T05:15:52;16.33;;;10.23;;
11646;SDS011;5880;52.342;9.662;2023-03-02T05:18:18;15.87;;;9.80;;
11646;SDS011;5880;52.342;9.662;2023-03-02T05:20:44;16.10;;;10.40;;
11646;SDS011;5880;52.342;9.662;2023-03-02T05:23:13;15.37;;;9.73;;
11646;SDS011;5880;52.342;9.662;2023-03-02T05:25:54;17.90;;;9.07;;
11646;SDS011;5880;52.342;9.662;2023-03-02T05:28:21;19.27;;;10.43;;
11646;SDS011;5880;52.342;9.662;2023-03-02T05:30:49;16.37;;;9.47;;
11646;SDS011;5880;52.342;9.662;2023-03-02T05:33:16;16.70;;;9.77;;
11646;SDS011;5880;52.342;9.662;2023-03-02T05:35:43;18.20;;;10.17;;
11646;SDS011;5880;52.342;9.662;2023-03-02T05:38:09;16.37;;;10.30;;
11646;SDS011;5880;52.342;9.662;2023-03-02T05:40:36;18.77;;;10.90;;
11646;SDS011;5880;52.342;9.662;2023-03-02T05:43:03;24.80;;;12.57;;
11646;SDS011;5880;52.342;9.662;2023-03-02T05:45:33;19.60;;;12.20;;
11646;SDS011;5880;52.342;9.662;2023-03-02T05:48:02;22.17;;;11.53;;
11646;SDS011;5880;52.342;9.662;2023-03-02T05:50:29;21.93;;;12.93;;
11646;SDS011;5880;52.342;9.662;2023-03-02T05:52:55;21.53;;;13.70;;
11646;SDS011;5880;52.342;9.662;2023-03-02T05:55:22;19.13;;;12.67;;
11646;SDS011;5880;52.342;9.662;2023-03-02T05:57:48;61.90;;;36.87;;
11646;SDS011;5880;52.342;9.662;2023-03-02T06:00:14;42.57;;;21.93;;
11646;SDS011;5880;52.342;9.662;2023-03-02T06:02:41;44.37;;;28.17;;
11646;SDS011;5880;52.342;9.662;2023-03-02T06:05:11;37.63;;;21.23;;
11646;SDS011;5880;52.342;9.662;2023-03-02T06:07:40;38.07;;;23.57;;
11646;SDS011;5880;52.342;9.662;2023-03-02T06:10:07;30.87;;;17.00;;
11646;SDS011;5880;52.342;9.662;2023-03-02T06:12:36;24.13;;;13.87;;
11646;SDS011;5880;52.342;9.662;2023-03-02T06:15:05;19.23;;;12.47;;
11646;SDS011;5880;52.342;9.662;2023-03-02T06:17:32;19.43;;;12.80;;
11646;SDS011;5880;52.342;9.662;2023-03-02T06:19:58;21.03;;;12.60;;
11646;SDS011;5880;52.342;9.662;2023-03-02T06:22:24;18.23;;;11.63;;
11646;SDS011;5880;52.342;9.662;2023-03-02T06:24:49;16.57;;;9.97;;
11646;SDS011;5880;52.342;9.662;2023-03-02T06:27:15;17.83;;;11.33;;
11646;SDS011;5880;52.342;9.662;2023-03-02T06:29:41;18.70;;;11.20;;
11646;SDS011;5880;52.342;9.662;2023-03-02T06:32:06;16.93;;;10.83;;
11646;SDS011;5880;52.342;9.662;2023-03-02T06:34:32;18.03;;;10.10;;
11646;SDS011;5880;52.342;9.662;2023-03-02T06:36:58;15.17;;;10.20;;
11646;SDS011;5880;52.342;9.662;2023-03-02T06:39:23;20.60;;;12.17;;
11646;SDS011;5880;52.342;9.662;2023-03-02T06:41:49;17.23;;;11.03;;
11646;SDS011;5880;52.342;9.662;2023-03-02T06:44:15;16.57;;;10.70;;
11646;SDS011;5880;52.342;9.662;2023-03-02T06:46:42;16.57;;;10.07;;
11646;SDS011;5880;52.342;9.662;2023-03-02T06:49:09;18.13;;;11.10;;
11646;SDS011;5880;52.342;9.662;2023-03-02T06:51:36;20.43;;;11.97;;
11646;SDS011;5880;52.342;9.662;2023-03-02T06:54:02;18.47;;;10.97;;
11646;SDS011;5880;52.342;9.662;2023-03-02T06:56:32;18.77;;;10.67;;
11646;SDS011;5880;52.342;9.662;2023-03-02T06:58:58;18.97;;;10.67;;
11646;SDS011;5880;52.342;9.662;2023-03-02T07:01:24;17.90;;;10.00;;
11646;SDS011;5880;52.342;9.662;2023-03-02T07:03:50;15.50;;;9.90;;
11646;SDS011;5880;52.342;9.662;2023-03-02T07:06:16;16.23;;;10.03;;
11646;SDS011;5880;52.342;9.662;2023-03-02T07:08:41;16.33;;;10.57;;
11646;SDS011;5880;52.342;9.662;2023-03-02T07:11:08;18.43;;;11.60;;
11646;SDS011;5880;52.342;9.662;2023-03-02T07:13:36;18.07;;;11.50;;
11646;SDS011;5880;52.342;9.662;2023-03-02T07:16:10;14.73;;;10.10;;
11646;SDS011;5880;52.342;9.662;2023-03-02T07:18:38;15.63;;;10.10;;
11646;SDS011;5880;52.342;9.662;2023-03-02T07:21:05;15.77;;;10.63;;
11646;SDS011;5880;52.342;9.662;2023-03-02T07:23:31;17.30;;;10.80;;
11646;SDS011;5880;52.342;9.662;2023-03-02T07:25:57;14.93;;;10.07;;
11646;SDS011;5880;52.342;9.662;2023-03-02T07:28:23;15.83;;;9.77;;
11646;SDS011;5880;52.342;9.662;2023-03-02T07:30:52;15.37;;;10.03;;
11646;SDS011;5880;52.342;9.662;2023-03-02T07:33:19;15.27;;;9.30;;
11646;SDS011;5880;52.342;9.662;2023-03-02T07:35:45;13.90;;;9.23;;
11646;SDS011;5880;52.342;9.662;2023-03-02T07:38:12;17.97;;;11.33;;
11646;SDS011;5880;52.342;9.662;2023-03-02T07:40:41;14.40;;;10.03;;
11646;SDS011;5880;52.342;9.662;2023-03-02T07:43:08;14.00;;;9.97;;
11646;SDS011;5880;52.342;9.662;2023-03-02T07:45:35;15.13;;;9.63;;
11646;SDS011;5880;52.342;9.662;2023-03-02T07:48:02;14.87;;;9.87;;
11646;SDS011;5880;52.342;9.662;2023-03-02T07:50:29;13.70;;;9.37;;
11646;SDS011;5880;52.342;9.662;2023-03-02T07:52:55;15.50;;;9.77;;
11646;SDS011;5880;52.342;9.662;2023-03-02T07:55:21;15.57;;;10.53;;
11646;SDS011;5880;52.342;9.662;2023-03-02T07:57:47;16.90;;;10.87;;
11646;SDS011;5880;52.342;9.662;2023-03-02T08:00:12;13.33;;;9.80;;
11646;SDS011;5880;52.342;9.662;2023-03-02T08:02:40;17.40;;;10.17;;
11646;SDS011;5880;52.342;9.662;2023-03-02T08:05:07;14.17;;;9.50;;
11646;SDS011;5880;52.342;9.662;2023-03-02T08:07:35;14.77;;;9.60;;
11646;SDS011;5880;52.342;9.662;2023-03-02T08:10:01;16.47;;;10.13;;
11646;SDS011;5880;52.342;9.662;2023-03-02T08:12:27;14.43;;;9.50;;
11646;SDS011;5880;52.342;9.662;2023-03-02T08:14:54;14.23;;;9.07;;
11646;SDS011;5880;52.342;9.662;2023-03-02T08:17:19;12.90;;;9.00;;
11646;SDS011;5880;52.342;9.662;2023-03-02T08:19:45;15.60;;;9.60;;
11646;SDS011;5880;52.342;9.662;2023-03-02T08:22:12;15.03;;;9.60;;
11646;SDS011;5880;52.342;9.662;2023-03-02T08:24:38;16.30;;;10.50;;
11646;SDS011;5880;52.342;9.662;2023-03-02T08:27:05;17.57;;;10.63;;
11646;SDS011;5880;52.342;9.662;2023-03-02T08:29:32;14.10;;;9.23;;
11646;SDS011;5880;52.342;9.662;2023-03-02T08:31:58;14.53;;;9.63;;
11646;SDS011;5880;52.342;9.662;2023-03-02T08:34:24;17.37;;;11.33;;
11646;SDS011;5880;52.342;9.662;2023-03-02T08:36:51;14.27;;;9.53;;
11646;SDS011;5880;52.342;9.662;2023-03-02T08:39:17;15.47;;;9.70;;
11646;SDS011;5880;52.342;9.662;2023-03-02T08:41:43;15.60;;;10.23;;
11646;SDS011;5880;52.342;9.662;2023-03-02T08:44:08;14.00;;;9.87;;
11646;SDS011;5880;52.342;9.662;2023-03-02T08:46:34;16.50;;;10.90;;
11646;SDS011;5880;52.342;9.662;2023-03-02T08:49:00;18.97;;;12.03;;
11646;SDS011;5880;52.342;9.662;2023-03-02T08:51:26;19.50;;;12.37;;
11646;SDS011;5880;52.342;9.662;2023-03-02T08:53:53;18.00;;;11.53;;
11646;SDS011;5880;52.342;9.662;2023-03-02T08:56:21;18.17;;;11.93;;
11646;SDS011;5880;52.342;9.662;2023-03-02T08:59:00;18.70;;;11.60;;
11646;SDS011;5880;52.342;9.662;2023-03-02T09:01:30;17.90;;;11.10;;
11646;SDS011;5880;52.342;9.662;2023-03-02T09:03:58;15.67;;;9.90;;
11646;SDS011;5880;52.342;9.662;2023-03-02T09:06:25;17.93;;;10.20;;
11646;SDS011;5880;52.342;9.662;2023-03-02T09:08:53;18.80;;;11.77;;
11646;SDS011;5880;52.342;9.662;2023-03-02T09:11:19;15.90;;;11.27;;
11646;SDS011;5880;52.342;9.662;2023-03-02T09:13:45;18.23;;;11.50;;
11646;SDS011;5880;52.342;9.662;2023-03-02T09:16:12;16.00;;;10.13;;
11646;SDS011;5880;52.342;9.662;2023-03-02T09:18:39;15.10;;;9.87;;
11646;SDS011;5880;52.342;9.662;2023-03-02T09:21:06;15.63;;;10.17;;
11646;SDS011;5880;52.342;9.662;2023-03-02T09:23:32;14.00;;;9.30;;
11646;SDS011;5880;52.342;9.662;2023-03-02T09:26:00;12.40;;;8.80;;
11646;SDS011;5880;52.342;9.662;2023-03-02T09:28:26;15.13;;;10.20;;
11646;SDS011;5880;52.342;9.662;2023-03-02T09:30:53;15.27;;;9.50;;
11646;SDS011;5880;52.342;9.662;2023-03-02T09:33:24;16.77;;;9.97;;
11646;SDS011;5880;52.342;9.662;2023-03-02T09:35:51;15.17;;;9.80;;
11646;SDS011;5880;52.342;9.662;2023-03-02T09:38:16;15.37;;;9.70;;
11646;SDS011;5880;52.342;9.662;2023-03-02T09:46:29;17.10;;;11.17;;
11646;SDS011;5880;52.342;9.662;2023-03-02T09:49:02;15.40;;;10.50;;
11646;SDS011;5880;52.342;9.662;2023-03-02T09:55:18;13.80;;;9.23;;
11646;SDS011;5880;52.342;9.662;2023-03-02T09:57:50;13.33;;;8.63;;
11646;SDS011;5880;52.342;9.662;2023-03-02T10:00:30;13.47;;;8.93;;
11646;SDS011;5880;52.342;9.662;2023-03-02T10:03:10;13.20;;;9.07;;
11646;SDS011;5880;52.342;9.662;2023-03-02T10:05:46;14.73;;;10.10;;
11646;SDS011;5880;52.342;9.662;2023-03-02T10:08:21;20.03;;;12.03;;
11646;SDS011;5880;52.342;9.662;2023-03-02T10:16:46;16.00;;;10.27;;
11646;SDS011;5880;52.342;9.662;2023-03-02T10:19:36;12.87;;;9.07;;
11646;SDS011;5880;52.342;9.662;2023-03-02T10:25:27;16.00;;;10.37;;
11646;SDS011;5880;52.342;9.662;2023-03-02T10:28:23;13.27;;;9.07;;
11646;SDS011;5880;52.342;9.662;2023-03-02T10:31:10;14.10;;;9.73;;
11646;SDS011;5880;52.342;9.662;2023-03-02T10:33:49;13.93;;;9.23;;
11646;SDS011;5880;52.342;9.662;2023-03-02T10:36:37;17.43;;;9.53;;
11646;SDS011;5880;52.342;9.662;2023-03-02T10:39:06;13.00;;;8.87;;
11646;SDS011;5880;52.342;9.662;2023-03-02T10:41:40;15.63;;;9.93;;
11646;SDS011;5880;52.342;9.662;2023-03-02T10:44:30;15.07;;;9.13;;
11646;SDS011;5880;52.342;9.662;2023-03-02T10:47:02;14.77;;;9.77;;
11646;SDS011;5880;52.342;9.662;2023-03-02T10:49:30;18.07;;;11.73;;
11646;SDS011;5880;52.342;9.662;2023-03-02T10:52:09;16.67;;;11.13;;
11646;SDS011;5880;52.342;9.662;2023-03-02T10:54:39;17.50;;;11.27;;
11646;SDS011;5880;52.342;9.662;2023-03-02T10:57:26;16.97;;;11.27;;
11646;SDS011;5880;52.342;9.662;2023-03-02T11:00:05;19.90;;;11.20;;
11646;SDS011;5880;52.342;9.662;2023-03-02T11:02:50;15.13;;;9.97;;
11646;SDS011;5880;52.342;9.662;2023-03-02T11:08:09;15.13;;;10.50;;
11646;SDS011;5880;52.342;9.662;2023-03-02T11:13:29;14.17;;;9.67;;
11646;SDS011;5880;52.342;9.662;2023-03-02T11:16:02;16.00;;;10.53;;
11646;SDS011;5880;52.342;9.662;2023-03-02T11:18:51;13.03;;;9.03;;
11646;SDS011;5880;52.342;9.662;2023-03-02T11:24:14;13.50;;;9.60;;
11646;SDS011;5880;52.342;9.662;2023-03-02T11:26:52;15.17;;;10.47;;
11646;SDS011;5880;52.342;9.662;2023-03-02T11:29:36;14.80;;;9.43;;
11646;SDS011;5880;52.342;9.662;2023-03-02T11:32:21;13.20;;;9.60;;
11646;SDS011;5880;52.342;9.662;2023-03-02T11:35:07;14.27;;;10.50;;
11646;SDS011;5880;52.342;9.662;2023-03-02T11:37:52;14.77;;;10.07;;
11646;SDS011;5880;52.342;9.662;2023-03-02T11:40:29;13.77;;;9.80;;
11646;SDS011;5880;52.342;9.662;2023-03-02T11:43:04;15.77;;;11.60;;
11646;SDS011;5880;52.342;9.662;2023-03-02T11:45:31;17.93;;;12.30;;
11646;SDS011;5880;52.342;9.662;2023-03-02T11:51:20;18.60;;;11.20;;
11646;SDS011;5880;52.342;9.662;2023-03-02T11:54:02;15.23;;;10.90;;
11646;SDS011;5880;52.342;9.662;2023-03-02T11:56:52;15.73;;;11.00;;
11646;SDS011;5880;52.342;9.662;2023-03-02T11:59:18;16.23;;;10.97;;
11646;SDS011;5880;52.342;9.662;2023-03-02T12:01:47;15.57;;;10.47;;
11646;SDS011;5880;52.342;9.662;2023-03-02T12:04:33;14.70;;;11.27;;
11646;SDS011;5880;52.342;9.662;2023-03-02T12:07:14;17.27;;;10.87;;
11646;SDS011;5880;52.342;9.662;2023-03-02T12:09:57;14.13;;;9.93;;
11646;SDS011;5880;52.342;9.662;2023-03-02T12:12:46;14.00;;;10.27;;
11646;SDS011;5880;52.342;9.662;2023-03-02T12:15:39;16.67;;;10.37;;
11646;SDS011;5880;52.342;9.662;2023-03-02T12:18:53;13.77;;;10.03;;
11646;SDS011;5880;52.342;9.662;2023-03-02T12:21:10;14.47;;;10.03;;
11646;SDS011;5880;52.342;9.662;2023-03-02T12:31:43;14.07;;;10.47;;
11646;SDS011;5880;52.342;9.662;2023-03-02T12:34:36;16.03;;;11.40;;
11646;SDS011;5880;52.342;9.662;2023-03-02T12:37:18;17.10;;;10.43;;
11646;SDS011;5880;52.342;9.662;2023-03-02T12:51:32;15.23;;;10.20;;
11646;SDS011;5880;52.342;9.662;2023-03-02T12:54:23;13.37;;;9.67;;
11646;SDS011;5880;52.342;9.662;2023-03-02T12:59:55;16.13;;;11.57;;
11646;SDS011;5880;52.342;9.662;2023-03-02T13:02:29;20.43;;;13.40;;
11646;SDS011;5880;52.342;9.662;2023-03-02T13:05:00;23.30;;;15.30;;
11646;SDS011;5880;52.342;9.662;2023-03-02T13:07:36;22.13;;;15.20;;
11646;SDS011;5880;52.342;9.662;2023-03-02T13:10:18;22.43;;;16.10;;
11646;SDS011;5880;52.342;9.662;2023-03-02T13:12:55;23.00;;;15.53;;
11646;SDS011;5880;52.342;9.662;2023-03-02T13:15:23;21.17;;;14.83;;
11646;SDS011;5880;52.342;9.662;2023-03-02T13:17:53;19.03;;;13.73;;
11646;SDS011;5880;52.342;9.662;2023-03-02T13:20:27;20.50;;;13.73;;
11646;SDS011;5880;52.342;9.662;2023-03-02T13:22:54;18.80;;;13.40;;
11646;SDS011;5880;52.342;9.662;2023-03-02T13:25:22;18.17;;;12.43;;
11646;SDS011;5880;52.342;9.662;2023-03-02T13:27:57;16.77;;;12.37;;
11646;SDS011;5880;52.342;9.662;2023-03-02T13:30:31;19.03;;;13.77;;
11646;SDS011;5880;52.342;9.662;2023-03-02T13:33:00;20.63;;;14.80;;
11646;SDS011;5880;52.342;9.662;2023-03-02T13:35:30;19.93;;;13.63;;
11646;SDS011;5880;52.342;9.662;2023-03-02T13:38:12;18.33;;;13.23;;
11646;SDS011;5880;52.342;9.662;2023-03-02T13:40:49;21.00;;;15.07;;
11646;SDS011;5880;52.342;9.662;2023-03-02T13:46:50;17.50;;;12.87;;
11646;SDS011;5880;52.342;9.662;2023-03-02T13:49:09;18.13;;;12.90;;
11646;SDS011;5880;52.342;9.662;2023-03-02T13:51:36;19.87;;;12.70;;
11646;SDS011;5880;52.342;9.662;2023-03-02T13:54:19;20.10;;;14.10;;
11646;SDS011;5880;52.342;9.662;2023-03-02T13:56:49;18.27;;;12.87;;
11646;SDS011;5880;52.342;9.662;2023-03-02T13:59:18;19.70;;;13.50;;
11646;SDS011;5880;52.342;9.662;2023-03-02T14:01:45;41.10;;;22.43;;
11646;SDS011;5880;52.342;9.662;2023-03-02T14:04:12;39.73;;;21.23;;
11646;SDS011;5880;52.342;9.662;2023-03-02T14:06:45;27.00;;;17.10;;
11646;SDS011;5880;52.342;9.662;2023-03-02T14:09:11;24.67;;;15.77;;
11646;SDS011;5880;52.342;9.662;2023-03-02T14:11:39;22.90;;;15.17;;
11646;SDS011;5880;52.342;9.662;2023-03-02T14:14:13;21.43;;;14.07;;
11646;SDS011;5880;52.342;9.662;2023-03-02T14:16:48;20.77;;;14.20;;
11646;SDS011;5880;52.342;9.662;2023-03-02T14:19:15;21.13;;;13.87;;
11646;SDS011;5880;52.342;9.662;2023-03-02T14:21:42;22.33;;;15.43;;
11646;SDS011;5880;52.342;9.662;2023-03-02T14:24:09;19.97;;;13.97;;
11646;SDS011;5880;52.342;9.662;2023-03-02T14:26:36;17.77;;;11.83;;
11646;SDS011;5880;52.342;9.662;2023-03-02T14:31:58;15.00;;;11.17;;
11646;SDS011;5880;52.342;9.662;2023-03-02T14:34:32;17.80;;;12.13;;
11646;SDS011;5880;52.342;9.662;2023-03-02T14:37:00;16.70;;;11.43;;
11646;SDS011;5880;52.342;9.662;2023-03-02T14:39:39;18.80;;;12.03;;
11646;SDS011;5880;52.342;9.662;2023-03-02T14:42:16;16.30;;;11.27;;
11646;SDS011;5880;52.342;9.662;2023-03-02T14:44:45;17.27;;;12.37;;
11646;SDS011;5880;52.342;9.662;2023-03-02T14:47:13;29.17;;;15.63;;
11646;SDS011;5880;52.342;9.662;2023-03-02T14:49:41;18.77;;;12.43;;
11646;SDS011;5880;52.342;9.662;2023-03-02T14:52:12;17.10;;;11.57;;
11646;SDS011;5880;52.342;9.662;2023-03-02T14:55:05;20.33;;;12.83;;
11646;SDS011;5880;52.342;9.662;2023-03-02T14:57:42;16.20;;;10.33;;
11646;SDS011;5880;52.342;9.662;2023-03-02T15:00:11;16.17;;;11.50;;
11646;SDS011;5880;52.342;9.662;2023-03-02T15:02:39;14.73;;;10.50;;
11646;SDS011;5880;52.342;9.662;2023-03-02T15:05:05;16.60;;;11.43;;
11646;SDS011;5880;52.342;9.662;2023-03-02T15:07:31;22.07;;;14.10;;
11646;SDS011;5880;52.342;9.662;2023-03-02T15:09:57;18.20;;;12.87;;
11646;SDS011;5880;52.342;9.662;2023-03-02T15:12:23;15.90;;;11.33;;
11646;SDS011;5880;52.342;9.662;2023-03-02T15:14:49;16.10;;;10.90;;
11646;SDS011;5880;52.342;9.662;2023-03-02T15:17:14;16.57;;;10.93;;
11646;SDS011;5880;52.342;9.662;2023-03-02T15:19:40;16.03;;;10.53;;
11646;SDS011;5880;52.342;9.662;2023-03-02T15:22:06;14.83;;;10.60;;
11646;SDS011;5880;52.342;9.662;2023-03-02T15:24:32;15.90;;;10.30;;
11646;SDS011;5880;52.342;9.662;2023-03-02T15:26:57;18.00;;;11.63;;
11646;SDS011;5880;52.342;9.662;2023-03-02T15:29:23;17.07;;;11.67;;
11646;SDS011;5880;52.342;9.662;2023-03-02T15:31:49;16.53;;;11.37;;
11646;SDS011;5880;52.342;9.662;2023-03-02T15:34:14;14.03;;;9.87;;
11646;SDS011;5880;52.342;9.662;2023-03-02T15:36:40;16.83;;;11.20;;
11646;SDS011;5880;52.342;9.662;2023-03-02T15:39:06;17.43;;;11.50;;
11646;SDS011;5880;52.342;9.662;2023-03-02T15:41:35;15.00;;;9.70;;
11646;SDS011;5880;52.342;9.662;2023-03-02T15:44:01;16.57;;;10.70;;
11646;SDS011;5880;52.342;9.662;2023-03-02T15:46:27;15.37;;;10.40;;
11646;SDS011;5880;52.342;9.662;2023-03-02T15:48:53;14.83;;;10.27;;
11646;SDS011;5880;52.342;9.662;2023-03-02T15:51:18;18.60;;;12.20;;
11646;SDS011;5880;52.342;9.662;2023-03-02T15:53:44;15.57;;;10.57;;
11646;SDS011;5880;52.342;9.662;2023-03-02T15:56:12;15.50;;;11.20;;
11646;SDS011;5880;52.342;9.662;2023-03-02T15:58:40;16.13;;;10.77;;
11646;SDS011;5880;52.342;9.662;2023-03-02T16:01:13;15.73;;;11.17;;
11646;SDS011;5880;52.342;9.662;2023-03-02T16:03:40;15.87;;;11.00;;
11646;SDS011;5880;52.342;9.662;2023-03-02T16:06:07;18.33;;;12.03;;